sensor_id;sensor_type;location;lat;lon;timestamp;P1;P2;P0
48893;PMS5003;34710;35.798;139.446;2022-11-04T00:01:45;4;4;
48893;PMS5003;34710;35.798;139.446;2022-11-04T00:04:16;3;3;
48893;PMS5003;34710;35.798;139.446;2022-11-04T00:06:47;2;2;
48893;PMS5003;34710;35.798;139.446;2022-11-04T00:09:17;4;4;
48893;PMS5003;34710;35.798;139.446;2022-11-04T00:11:47;3;2;
48893;PMS5003;34710;35.798;139.446;2022-11-04T00:14:17;4;4;
48893;PMS5003;34710;35.798;139.446;2022-11-04T00:16:47;2;2;
48893;PMS5003;34710;35.798;139.446;2022-11-04T00:19:16;2;2;
48893;PMS5003;34710;35.798;139.446;2022-11-04T00:21:46;3;3;
48893;PMS5003;34710;35.798;139.446;2022-11-04T00:24:16;2;2;
48893;PMS5003;34710;35.798;139.446;2022-11-04T00:26:45;2;2;
48893;PMS5003;34710;35.798;139.446;2022-11-04T00:29:14;6;3;
48893;PMS5003;34710;35.798;139.446;2022-11-04T00:31:44;2;2;
48893;PMS5003;34710;35.798;139.446;2022-11-04T00:34:13;2;2;
48893;PMS5003;34710;35.798;139.446;2022-11-04T00:36:43;2;2;
48893;PMS5003;34710;35.798;139.446;2022-11-04T00:39:12;0;0;
48893;PMS5003;34710;35.798;139.446;2022-11-04T00:41:41;1;1;
48893;PMS5003;34710;35.798;139.446;2022-11-04T00:44:11;2;0;
48893;PMS5003;34710;35.798;139.446;2022-11-04T00:46:41;2;2;
48893;PMS5003;34710;35.798;139.446;2022-11-04T00:49:11;1;1;
48893;PMS5003;34710;35.798;139.446;2022-11-04T00:51:40;1;1;
48893;PMS5003;34710;35.798;139.446;2022-11-04T00:54:09;2;2;
48893;PMS5003;34710;35.798;139.446;2022-11-04T00:56:39;2;2;
48893;PMS5003;34710;35.798;139.446;2022-11-04T00:59:08;2;1;
48893;PMS5003;34710;35.798;139.446;2022-11-04T01:01:37;3;3;
48893;PMS5003;34710;35.798;139.446;2022-11-04T01:04:07;2;1;
48893;PMS5003;34710;35.798;139.446;2022-11-04T01:06:37;3;3;
48893;PMS5003;34710;35.798;139.446;2022-11-04T01:09:07;5;5;
48893;PMS5003;34710;35.798;139.446;2022-11-04T01:11:38;7;5;
48893;PMS5003;34710;35.798;139.446;2022-11-04T01:14:07;6;6;
48893;PMS5003;34710;35.798;139.446;2022-11-04T01:16:37;8;7;
48893;PMS5003;34710;35.798;139.446;2022-11-04T01:19:07;10;9;
48893;PMS5003;34710;35.798;139.446;2022-11-04T01:21:36;12;9;
48893;PMS5003;34710;35.798;139.446;2022-11-04T01:24:05;12;12;
48893;PMS5003;34710;35.798;139.446;2022-11-04T01:26:35;15;13;
48893;PMS5003;34710;35.798;139.446;2022-11-04T01:29:04;15;12;
48893;PMS5003;34710;35.798;139.446;2022-11-04T01:31:33;28;17;
48893;PMS5003;34710;35.798;139.446;2022-11-04T01:34:02;24;22;
48893;PMS5003;34710;35.798;139.446;2022-11-04T01:36:31;23;19;
48893;PMS5003;34710;35.798;139.446;2022-11-04T01:39:00;17;17;
48893;PMS5003;34710;35.798;139.446;2022-11-04T01:41:31;19;18;
48893;PMS5003;34710;35.798;139.446;2022-11-04T01:44:02;27;22;
48893;PMS5003;34710;35.798;139.446;2022-11-04T01:47:12;23;20;
48893;PMS5003;34710;35.798;139.446;2022-11-04T01:49:45;20;18;
48893;PMS5003;34710;35.798;139.446;2022-11-04T01:52:21;19;19;
48893;PMS5003;34710;35.798;139.446;2022-11-04T01:54:56;23;20;
48893;PMS5003;34710;35.798;139.446;2022-11-04T01:57:31;21;19;
48893;PMS5003;34710;35.798;139.446;2022-11-04T02:00:06;20;18;
48893;PMS5003;34710;35.798;139.446;2022-11-04T02:02:38;24;20;
48893;PMS5003;34710;35.798;139.446;2022-11-04T02:05:16;22;22;
48893;PMS5003;34710;35.798;139.446;2022-11-04T02:07:46;32;25;
48893;PMS5003;34710;35.798;139.446;2022-11-04T02:10:21;25;22;
48893;PMS5003;34710;35.798;139.446;2022-11-04T02:12:53;25;23;
48893;PMS5003;34710;35.798;139.446;2022-11-04T02:15:26;25;21;
48893;PMS5003;34710;35.798;139.446;2022-11-04T02:18:16;24;24;
48893;PMS5003;34710;35.798;139.446;2022-11-04T02:21:25;22;22;
48893;PMS5003;34710;35.798;139.446;2022-11-04T02:23:27;22;22;
48893;PMS5003;34710;35.798;139.446;2022-11-04T02:27:12;21;19;
48893;PMS5003;34710;35.798;139.446;2022-11-04T02:27:55;21;19;
48893;PMS5003;34710;35.798;139.446;2022-11-04T02:30:38;22;22;
48893;PMS5003;34710;35.798;139.446;2022-11-04T02:33:16;23;22;
48893;PMS5003;34710;35.798;139.446;2022-11-04T02:35:52;24;21;
48893;PMS5003;34710;35.798;139.446;2022-11-04T02:38:29;23;20;
48893;PMS5003;34710;35.798;139.446;2022-11-04T02:41:06;30;24;
48893;PMS5003;34710;35.798;139.446;2022-11-04T02:43:46;27;23;
48893;PMS5003;34710;35.798;139.446;2022-11-04T02:46:29;25;23;
48893;PMS5003;34710;35.798;139.446;2022-11-04T02:49:05;31;28;
48893;PMS5003;34710;35.798;139.446;2022-11-04T02:51:40;41;32;
48893;PMS5003;34710;35.798;139.446;2022-11-04T02:54:16;40;31;
48893;PMS5003;34710;35.798;139.446;2022-11-04T02:56:50;32;27;
48893;PMS5003;34710;35.798;139.446;2022-11-04T02:59:22;27;26;
48893;PMS5003;34710;35.798;139.446;2022-11-04T03:01:58;28;25;
48893;PMS5003;34710;35.798;139.446;2022-11-04T03:04:32;27;26;
48893;PMS5003;34710;35.798;139.446;2022-11-04T03:07:06;21;21;
48893;PMS5003;34710;35.798;139.446;2022-11-04T03:09:39;20;20;
48893;PMS5003;34710;35.798;139.446;2022-11-04T03:12:14;24;23;
48893;PMS5003;34710;35.798;139.446;2022-11-04T03:14:48;26;24;
48893;PMS5003;34710;35.798;139.446;2022-11-04T03:17:25;27;21;
48893;PMS5003;34710;35.798;139.446;2022-11-04T03:19:58;22;20;
48893;PMS5003;34710;35.798;139.446;2022-11-04T03:22:29;27;24;
48893;PMS5003;34710;35.798;139.446;2022-11-04T03:25:02;24;23;
48893;PMS5003;34710;35.798;139.446;2022-11-04T03:27:36;19;19;
48893;PMS5003;34710;35.798;139.446;2022-11-04T03:30:11;15;15;
48893;PMS5003;34710;35.798;139.446;2022-11-04T03:32:43;15;15;
48893;PMS5003;34710;35.798;139.446;2022-11-04T03:35:18;18;18;
48893;PMS5003;34710;35.798;139.446;2022-11-04T03:37:48;33;22;
48893;PMS5003;34710;35.798;139.446;2022-11-04T03:40:17;33;23;
48893;PMS5003;34710;35.798;139.446;2022-11-04T03:42:49;20;19;
48893;PMS5003;34710;35.798;139.446;2022-11-04T03:45:22;22;21;
48893;PMS5003;34710;35.798;139.446;2022-11-04T03:47:52;18;15;
48893;PMS5003;34710;35.798;139.446;2022-11-04T03:50:24;32;18;
48893;PMS5003;34710;35.798;139.446;2022-11-04T03:52:56;27;20;
48893;PMS5003;34710;35.798;139.446;2022-11-04T03:55:29;22;19;
48893;PMS5003;34710;35.798;139.446;2022-11-04T03:58:08;21;18;
48893;PMS5003;34710;35.798;139.446;2022-11-04T04:00:46;22;20;
48893;PMS5003;34710;35.798;139.446;2022-11-04T04:03:20;21;20;
48893;PMS5003;34710;35.798;139.446;2022-11-04T04:05:57;59;42;
48893;PMS5003;34710;35.798;139.446;2022-11-04T04:08:34;35;23;
48893;PMS5003;34710;35.798;139.446;2022-11-04T04:11:09;43;29;
48893;PMS5003;34710;35.798;139.446;2022-11-04T04:13:47;38;18;
48893;PMS5003;34710;35.798;139.446;2022-11-04T04:16:23;21;10;
48893;PMS5003;34710;35.798;139.446;2022-11-04T04:18:58;10;7;
48893;PMS5003;34710;35.798;139.446;2022-11-04T04:21:34;8;7;
48893;PMS5003;34710;35.798;139.446;2022-11-04T04:24:08;9;6;
48893;PMS5003;34710;35.798;139.446;2022-11-04T04:26:41;8;7;
48893;PMS5003;34710;35.798;139.446;2022-11-04T04:29:13;7;6;
48893;PMS5003;34710;35.798;139.446;2022-11-04T04:31:46;7;7;
48893;PMS5003;34710;35.798;139.446;2022-11-04T04:34:16;6;6;
48893;PMS5003;34710;35.798;139.446;2022-11-04T04:36:50;12;9;
48893;PMS5003;34710;35.798;139.446;2022-11-04T04:39:24;9;7;
48893;PMS5003;34710;35.798;139.446;2022-11-04T04:41:58;17;9;
48893;PMS5003;34710;35.798;139.446;2022-11-04T04:44:28;13;8;
48893;PMS5003;34710;35.798;139.446;2022-11-04T04:46:57;8;8;
48893;PMS5003;34710;35.798;139.446;2022-11-04T04:49:29;8;6;
48893;PMS5003;34710;35.798;139.446;2022-11-04T04:52:04;9;7;
48893;PMS5003;34710;35.798;139.446;2022-11-04T04:54:34;12;6;
48893;PMS5003;34710;35.798;139.446;2022-11-04T04:57:09;9;8;
48893;PMS5003;34710;35.798;139.446;2022-11-04T04:59:38;9;7;
48893;PMS5003;34710;35.798;139.446;2022-11-04T05:02:08;7;7;
48893;PMS5003;34710;35.798;139.446;2022-11-04T05:04:38;11;8;
48893;PMS5003;34710;35.798;139.446;2022-11-04T05:07:08;8;5;
48893;PMS5003;34710;35.798;139.446;2022-11-04T05:09:37;11;7;
48893;PMS5003;34710;35.798;139.446;2022-11-04T05:12:06;21;10;
48893;PMS5003;34710;35.798;139.446;2022-11-04T05:14:36;24;8;
48893;PMS5003;34710;35.798;139.446;2022-11-04T05:17:09;15;8;
48893;PMS5003;34710;35.798;139.446;2022-11-04T05:19:39;33;17;
48893;PMS5003;34710;35.798;139.446;2022-11-04T05:22:08;26;10;
48893;PMS5003;34710;35.798;139.446;2022-11-04T05:24:42;32;18;
48893;PMS5003;34710;35.798;139.446;2022-11-04T05:27:11;15;12;
48893;PMS5003;34710;35.798;139.446;2022-11-04T05:29:45;34;16;
48893;PMS5003;34710;35.798;139.446;2022-11-04T05:32:19;14;12;
48893;PMS5003;34710;35.798;139.446;2022-11-04T05:34:49;11;8;
48893;PMS5003;34710;35.798;139.446;2022-11-04T05:37:23;16;10;
48893;PMS5003;34710;35.798;139.446;2022-11-04T05:39:58;12;9;
48893;PMS5003;34710;35.798;139.446;2022-11-04T05:42:26;8;8;
48893;PMS5003;34710;35.798;139.446;2022-11-04T05:45:03;13;7;
48893;PMS5003;34710;35.798;139.446;2022-11-04T05:47:33;15;7;
48893;PMS5003;34710;35.798;139.446;2022-11-04T05:50:02;14;10;
48893;PMS5003;34710;35.798;139.446;2022-11-04T05:52:37;12;9;
48893;PMS5003;34710;35.798;139.446;2022-11-04T05:55:06;18;12;
48893;PMS5003;34710;35.798;139.446;2022-11-04T05:57:40;15;7;
48893;PMS5003;34710;35.798;139.446;2022-11-04T06:00:15;13;9;
48893;PMS5003;34710;35.798;139.446;2022-11-04T06:02:45;15;11;
48893;PMS5003;34710;35.798;139.446;2022-11-04T06:05:19;10;10;
48893;PMS5003;34710;35.798;139.446;2022-11-04T06:07:54;14;9;
48893;PMS5003;34710;35.798;139.446;2022-11-04T06:10:24;35;19;
48893;PMS5003;34710;35.798;139.446;2022-11-04T06:12:58;10;8;
48893;PMS5003;34710;35.798;139.446;2022-11-04T06:15:27;15;9;
48893;PMS5003;34710;35.798;139.446;2022-11-04T06:17:57;13;12;
48893;PMS5003;34710;35.798;139.446;2022-11-04T06:20:31;12;10;
48893;PMS5003;34710;35.798;139.446;2022-11-04T06:23:06;9;9;
48893;PMS5003;34710;35.798;139.446;2022-11-04T06:25:40;26;14;
48893;PMS5003;34710;35.798;139.446;2022-11-04T06:28:14;14;8;
48893;PMS5003;34710;35.798;139.446;2022-11-04T06:30:43;21;10;
48893;PMS5003;34710;35.798;139.446;2022-11-04T06:33:17;8;6;
48893;PMS5003;34710;35.798;139.446;2022-11-04T06:35:47;9;9;
48893;PMS5003;34710;35.798;139.446;2022-11-04T06:38:16;10;8;
48893;PMS5003;34710;35.798;139.446;2022-11-04T06:40:50;9;9;
48893;PMS5003;34710;35.798;139.446;2022-11-04T06:43:19;8;7;
48893;PMS5003;34710;35.798;139.446;2022-11-04T06:45:52;13;9;
48893;PMS5003;34710;35.798;139.446;2022-11-04T06:48:27;10;7;
48893;PMS5003;34710;35.798;139.446;2022-11-04T06:50:57;11;9;
48893;PMS5003;34710;35.798;139.446;2022-11-04T06:53:32;17;8;
48893;PMS5003;34710;35.798;139.446;2022-11-04T06:56:06;14;12;
48893;PMS5003;34710;35.798;139.446;2022-11-04T06:58:41;9;9;
48893;PMS5003;34710;35.798;139.446;2022-11-04T07:01:18;7;6;
48893;PMS5003;34710;35.798;139.446;2022-11-04T07:03:54;10;7;
48893;PMS5003;34710;35.798;139.446;2022-11-04T07:06:24;8;7;
48893;PMS5003;34710;35.798;139.446;2022-11-04T07:09:00;7;6;
48893;PMS5003;34710;35.798;139.446;2022-11-04T07:11:35;8;7;
48893;PMS5003;34710;35.798;139.446;2022-11-04T07:14:04;11;8;
48893;PMS5003;34710;35.798;139.446;2022-11-04T07:16:39;13;7;
48893;PMS5003;34710;35.798;139.446;2022-11-04T07:19:08;5;5;
48893;PMS5003;34710;35.798;139.446;2022-11-04T07:21:42;11;8;
48893;PMS5003;34710;35.798;139.446;2022-11-04T07:24:16;9;8;
48893;PMS5003;34710;35.798;139.446;2022-11-04T07:26:45;9;6;
48893;PMS5003;34710;35.798;139.446;2022-11-04T07:29:19;5;5;
48893;PMS5003;34710;35.798;139.446;2022-11-04T07:31:53;7;6;
48893;PMS5003;34710;35.798;139.446;2022-11-04T07:34:22;13;6;
48893;PMS5003;34710;35.798;139.446;2022-11-04T07:36:56;4;4;
48893;PMS5003;34710;35.798;139.446;2022-11-04T07:39:25;4;4;
48893;PMS5003;34710;35.798;139.446;2022-11-04T07:41:53;7;7;
48893;PMS5003;34710;35.798;139.446;2022-11-04T07:44:28;8;6;
48893;PMS5003;34710;35.798;139.446;2022-11-04T07:46:57;8;6;
48893;PMS5003;34710;35.798;139.446;2022-11-04T07:49:32;6;4;
48893;PMS5003;34710;35.798;139.446;2022-11-04T07:52:06;7;5;
48893;PMS5003;34710;35.798;139.446;2022-11-04T07:54:34;4;3;
48893;PMS5003;34710;35.798;139.446;2022-11-04T07:57:09;7;5;
48893;PMS5003;34710;35.798;139.446;2022-11-04T07:59:38;6;4;
48893;PMS5003;34710;35.798;139.446;2022-11-04T08:02:08;5;5;
48893;PMS5003;34710;35.798;139.446;2022-11-04T08:04:43;7;7;
48893;PMS5003;34710;35.798;139.446;2022-11-04T08:07:17;4;4;
48893;PMS5003;34710;35.798;139.446;2022-11-04T08:10:34;7;6;
48893;PMS5003;34710;35.798;139.446;2022-11-04T08:13:08;4;4;
48893;PMS5003;34710;35.798;139.446;2022-11-04T08:15:38;5;3;
48893;PMS5003;34710;35.798;139.446;2022-11-04T08:18:06;7;5;
48893;PMS5003;34710;35.798;139.446;2022-11-04T08:20:40;7;4;
48893;PMS5003;34710;35.798;139.446;2022-11-04T08:23:20;8;4;
48893;PMS5003;34710;35.798;139.446;2022-11-04T08:25:54;7;4;
48893;PMS5003;34710;35.798;139.446;2022-11-04T08:28:30;4;4;
48893;PMS5003;34710;35.798;139.446;2022-11-04T08:31:00;11;4;
48893;PMS5003;34710;35.798;139.446;2022-11-04T08:33:37;3;3;
48893;PMS5003;34710;35.798;139.446;2022-11-04T08:36:12;3;3;
48893;PMS5003;34710;35.798;139.446;2022-11-04T08:38:45;3;3;
48893;PMS5003;34710;35.798;139.446;2022-11-04T08:41:15;4;3;
48893;PMS5003;34710;35.798;139.446;2022-11-04T08:43:51;4;3;
48893;PMS5003;34710;35.798;139.446;2022-11-04T08:46:22;4;3;
48893;PMS5003;34710;35.798;139.446;2022-11-04T08:48:56;2;2;
48893;PMS5003;34710;35.798;139.446;2022-11-04T08:51:26;5;4;
48893;PMS5003;34710;35.798;139.446;2022-11-04T08:53:56;2;2;
48893;PMS5003;34710;35.798;139.446;2022-11-04T08:56:31;5;4;
48893;PMS5003;34710;35.798;139.446;2022-11-04T08:59:02;6;6;
48893;PMS5003;34710;35.798;139.446;2022-11-04T09:01:36;4;4;
48893;PMS5003;34710;35.798;139.446;2022-11-04T09:04:05;7;7;
48893;PMS5003;34710;35.798;139.446;2022-11-04T09:06:37;7;6;
48893;PMS5003;34710;35.798;139.446;2022-11-04T09:09:08;4;4;
48893;PMS5003;34710;35.798;139.446;2022-11-04T09:11:41;6;5;
48893;PMS5003;34710;35.798;139.446;2022-11-04T09:14:12;4;4;
48893;PMS5003;34710;35.798;139.446;2022-11-04T09:16:42;6;4;
48893;PMS5003;34710;35.798;139.446;2022-11-04T09:19:12;4;4;
48893;PMS5003;34710;35.798;139.446;2022-11-04T09:21:46;7;4;
48893;PMS5003;34710;35.798;139.446;2022-11-04T09:24:20;4;4;
48893;PMS5003;34710;35.798;139.446;2022-11-04T09:26:49;4;3;
48893;PMS5003;34710;35.798;139.446;2022-11-04T09:29:23;5;5;
48893;PMS5003;34710;35.798;139.446;2022-11-04T09:31:57;3;3;
48893;PMS5003;34710;35.798;139.446;2022-11-04T09:34:27;4;2;
48893;PMS5003;34710;35.798;139.446;2022-11-04T09:37:01;4;3;
48893;PMS5003;34710;35.798;139.446;2022-11-04T09:39:31;5;4;
48893;PMS5003;34710;35.798;139.446;2022-11-04T09:42:06;4;4;
48893;PMS5003;34710;35.798;139.446;2022-11-04T09:42:59;4;4;
48893;PMS5003;34710;35.798;139.446;2022-11-04T09:43:48;4;4;
48893;PMS5003;34710;35.798;139.446;2022-11-04T09:46:29;4;4;
48893;PMS5003;34710;35.798;139.446;2022-11-04T09:49:07;4;4;
48893;PMS5003;34710;35.798;139.446;2022-11-04T09:51:44;4;4;
48893;PMS5003;34710;35.798;139.446;2022-11-04T09:54:16;7;4;
48893;PMS5003;34710;35.798;139.446;2022-11-04T09:56:54;7;7;
48893;PMS5003;34710;35.798;139.446;2022-11-04T09:59:26;6;4;
48893;PMS5003;34710;35.798;139.446;2022-11-04T10:02:02;5;3;
48893;PMS5003;34710;35.798;139.446;2022-11-04T10:04:49;5;5;
48893;PMS5003;34710;35.798;139.446;2022-11-04T10:07:30;3;3;
48893;PMS5003;34710;35.798;139.446;2022-11-04T10:08:21;3;3;
48893;PMS5003;34710;35.798;139.446;2022-11-04T10:09:05;3;3;
48893;PMS5003;34710;35.798;139.446;2022-11-04T10:11:52;2;2;
48893;PMS5003;34710;35.798;139.446;2022-11-04T10:14:35;5;4;
48893;PMS5003;34710;35.798;139.446;2022-11-04T10:15:33;5;4;
48893;PMS5003;34710;35.798;139.446;2022-11-04T10:16:18;5;4;
48893;PMS5003;34710;35.798;139.446;2022-11-04T10:16:53;5;3;
48893;PMS5003;34710;35.798;139.446;2022-11-04T10:17:39;5;3;
48893;PMS5003;34710;35.798;139.446;2022-11-04T10:18:28;5;3;
48893;PMS5003;34710;35.798;139.446;2022-11-04T10:19:28;5;4;
48893;PMS5003;34710;35.798;139.446;2022-11-04T10:20:26;5;4;
48893;PMS5003;34710;35.798;139.446;2022-11-04T10:23:12;9;6;
48893;PMS5003;34710;35.798;139.446;2022-11-04T10:24:15;9;6;
48893;PMS5003;34710;35.798;139.446;2022-11-04T10:24:47;9;6;
48893;PMS5003;34710;35.798;139.446;2022-11-04T10:25:31;9;6;
48893;PMS5003;34710;35.798;139.446;2022-11-04T10:26:22;9;6;
48893;PMS5003;34710;35.798;139.446;2022-11-04T10:29:03;11;10;
48893;PMS5003;34710;35.798;139.446;2022-11-04T10:31:43;10;8;
48893;PMS5003;34710;35.798;139.446;2022-11-04T10:34:18;7;7;
48893;PMS5003;34710;35.798;139.446;2022-11-04T10:35:14;7;7;
48893;PMS5003;34710;35.798;139.446;2022-11-04T10:38:51;8;7;
48893;PMS5003;34710;35.798;139.446;2022-11-04T10:41:28;14;10;
48893;PMS5003;34710;35.798;139.446;2022-11-04T10:44:06;9;9;
48893;PMS5003;34710;35.798;139.446;2022-11-04T10:46:50;7;7;
48893;PMS5003;34710;35.798;139.446;2022-11-04T10:49:37;7;6;
48893;PMS5003;34710;35.798;139.446;2022-11-04T10:50:25;7;6;
48893;PMS5003;34710;35.798;139.446;2022-11-04T10:53:10;5;5;
48893;PMS5003;34710;35.798;139.446;2022-11-04T10:55:43;9;8;
48893;PMS5003;34710;35.798;139.446;2022-11-04T10:58:22;6;6;
48893;PMS5003;34710;35.798;139.446;2022-11-04T11:00:55;9;9;
48893;PMS5003;34710;35.798;139.446;2022-11-04T11:03:26;6;6;
48893;PMS5003;34710;35.798;139.446;2022-11-04T11:06:11;9;6;
48893;PMS5003;34710;35.798;139.446;2022-11-04T11:08:48;7;7;
48893;PMS5003;34710;35.798;139.446;2022-11-04T11:11:33;9;9;
48893;PMS5003;34710;35.798;139.446;2022-11-04T11:12:19;9;9;
48893;PMS5003;34710;35.798;139.446;2022-11-04T11:14:50;6;6;
48893;PMS5003;34710;35.798;139.446;2022-11-04T11:17:25;8;6;
48893;PMS5003;34710;35.798;139.446;2022-11-04T11:18:26;8;6;
48893;PMS5003;34710;35.798;139.446;2022-11-04T11:21:06;6;6;
48893;PMS5003;34710;35.798;139.446;2022-11-04T11:23:43;7;7;
48893;PMS5003;34710;35.798;139.446;2022-11-04T11:26:13;8;7;
48893;PMS5003;34710;35.798;139.446;2022-11-04T11:28:51;10;10;
48893;PMS5003;34710;35.798;139.446;2022-11-04T11:31:23;9;8;
48893;PMS5003;34710;35.798;139.446;2022-11-04T11:33:53;6;6;
48893;PMS5003;34710;35.798;139.446;2022-11-04T11:36:30;5;5;
48893;PMS5003;34710;35.798;139.446;2022-11-04T11:39:03;5;5;
48893;PMS5003;34710;35.798;139.446;2022-11-04T11:41:52;6;5;
48893;PMS5003;34710;35.798;139.446;2022-11-04T11:44:30;5;5;
48893;PMS5003;34710;35.798;139.446;2022-11-04T11:47:03;3;3;
48893;PMS5003;34710;35.798;139.446;2022-11-04T11:49:39;6;6;
48893;PMS5003;34710;35.798;139.446;2022-11-04T11:52:22;6;6;
48893;PMS5003;34710;35.798;139.446;2022-11-04T11:53:13;7;7;
48893;PMS5003;34710;35.798;139.446;2022-11-04T11:55:48;3;3;
48893;PMS5003;34710;35.798;139.446;2022-11-04T11:58:27;4;4;
48893;PMS5003;34710;35.798;139.446;2022-11-04T12:01:11;3;3;
48893;PMS5003;34710;35.798;139.446;2022-11-04T12:03:49;3;3;
48893;PMS5003;34710;35.798;139.446;2022-11-04T12:06:23;2;2;
48893;PMS5003;34710;35.798;139.446;2022-11-04T12:07:17;2;2;
48893;PMS5003;34710;35.798;139.446;2022-11-04T12:09:53;4;2;
48893;PMS5003;34710;35.798;139.446;2022-11-04T12:12:38;5;5;
48893;PMS5003;34710;35.798;139.446;2022-11-04T12:13:17;5;5;
48893;PMS5003;34710;35.798;139.446;2022-11-04T12:16:04;5;5;
48893;PMS5003;34710;35.798;139.446;2022-11-04T12:17:00;5;4;
48893;PMS5003;34710;35.798;139.446;2022-11-04T12:17:45;5;4;
48893;PMS5003;34710;35.798;139.446;2022-11-04T12:18:32;5;4;
48893;PMS5003;34710;35.798;139.446;2022-11-04T12:19:29;5;4;
48893;PMS5003;34710;35.798;139.446;2022-11-04T12:20:05;5;4;
48893;PMS5003;34710;35.798;139.446;2022-11-04T12:20:58;5;4;
48893;PMS5003;34710;35.798;139.446;2022-11-04T12:23:38;3;3;
48893;PMS5003;34710;35.798;139.446;2022-11-04T12:24:38;3;3;
48893;PMS5003;34710;35.798;139.446;2022-11-04T12:27:17;7;4;
48893;PMS5003;34710;35.798;139.446;2022-11-04T12:29:58;6;5;
48893;PMS5003;34710;35.798;139.446;2022-11-04T12:32:35;4;4;
48893;PMS5003;34710;35.798;139.446;2022-11-04T12:35:19;4;4;
48893;PMS5003;34710;35.798;139.446;2022-11-04T12:37:59;3;3;
48893;PMS5003;34710;35.798;139.446;2022-11-04T12:40:41;4;4;
48893;PMS5003;34710;35.798;139.446;2022-11-04T12:43:20;6;5;
48893;PMS5003;34710;35.798;139.446;2022-11-04T12:46:01;4;3;
48893;PMS5003;34710;35.798;139.446;2022-11-04T12:48:43;6;5;
48893;PMS5003;34710;35.798;139.446;2022-11-04T12:51:34;5;5;
48893;PMS5003;34710;35.798;139.446;2022-11-04T12:54:19;8;7;
48893;PMS5003;34710;35.798;139.446;2022-11-04T12:55:19;8;7;
48893;PMS5003;34710;35.798;139.446;2022-11-04T12:56:11;8;6;
48893;PMS5003;34710;35.798;139.446;2022-11-04T12:58:50;5;3;
48893;PMS5003;34710;35.798;139.446;2022-11-04T12:59:49;6;4;
48893;PMS5003;34710;35.798;139.446;2022-11-04T13:02:29;6;4;
48893;PMS5003;34710;35.798;139.446;2022-11-04T13:05:14;5;5;
48893;PMS5003;34710;35.798;139.446;2022-11-04T13:06:45;5;5;
48893;PMS5003;34710;35.798;139.446;2022-11-04T13:09:25;6;4;
48893;PMS5003;34710;35.798;139.446;2022-11-04T13:12:08;7;6;
48893;PMS5003;34710;35.798;139.446;2022-11-04T13:14:41;5;5;
48893;PMS5003;34710;35.798;139.446;2022-11-04T13:17:21;9;7;
48893;PMS5003;34710;35.798;139.446;2022-11-04T13:20:02;6;6;
48893;PMS5003;34710;35.798;139.446;2022-11-04T13:22:41;5;5;
48893;PMS5003;34710;35.798;139.446;2022-11-04T13:25:21;6;6;
48893;PMS5003;34710;35.798;139.446;2022-11-04T13:28:00;6;6;
48893;PMS5003;34710;35.798;139.446;2022-11-04T13:30:32;6;6;
48893;PMS5003;34710;35.798;139.446;2022-11-04T13:33:13;9;9;
48893;PMS5003;34710;35.798;139.446;2022-11-04T13:35:56;7;6;
48893;PMS5003;34710;35.798;139.446;2022-11-04T13:38:33;8;8;
48893;PMS5003;34710;35.798;139.446;2022-11-04T13:41:19;8;7;
48893;PMS5003;34710;35.798;139.446;2022-11-04T13:42:49;8;7;
48893;PMS5003;34710;35.798;139.446;2022-11-04T13:43:30;8;7;
48893;PMS5003;34710;35.798;139.446;2022-11-04T13:46:22;6;6;
48893;PMS5003;34710;35.798;139.446;2022-11-04T13:47:12;7;7;
48893;PMS5003;34710;35.798;139.446;2022-11-04T13:49:50;9;8;
48893;PMS5003;34710;35.798;139.446;2022-11-04T13:52:26;7;7;
48893;PMS5003;34710;35.798;139.446;2022-11-04T13:54:59;7;7;
48893;PMS5003;34710;35.798;139.446;2022-11-04T13:57:46;8;6;
48893;PMS5003;34710;35.798;139.446;2022-11-04T13:58:31;8;6;
48893;PMS5003;34710;35.798;139.446;2022-11-04T14:01:09;22;13;
48893;PMS5003;34710;35.798;139.446;2022-11-04T14:04:05;7;7;
48893;PMS5003;34710;35.798;139.446;2022-11-04T14:04:54;8;8;
48893;PMS5003;34710;35.798;139.446;2022-11-04T14:10:36;10;8;
48893;PMS5003;34710;35.798;139.446;2022-11-04T14:13:41;8;5;
48893;PMS5003;34710;35.798;139.446;2022-11-04T14:16:36;7;6;
48893;PMS5003;34710;35.798;139.446;2022-11-04T14:18:00;7;6;
48893;PMS5003;34710;35.798;139.446;2022-11-04T14:20:35;9;7;
48893;PMS5003;34710;35.798;139.446;2022-11-04T14:23:32;9;7;
48893;PMS5003;34710;35.798;139.446;2022-11-04T14:26:09;8;8;
48893;PMS5003;34710;35.798;139.446;2022-11-04T14:28:46;7;6;
48893;PMS5003;34710;35.798;139.446;2022-11-04T14:31:33;8;6;
48893;PMS5003;34710;35.798;139.446;2022-11-04T14:34:21;6;6;
48893;PMS5003;34710;35.798;139.446;2022-11-04T14:35:14;5;5;
48893;PMS5003;34710;35.798;139.446;2022-11-04T14:35:55;5;5;
48893;PMS5003;34710;35.798;139.446;2022-11-04T14:38:40;8;8;
48893;PMS5003;34710;35.798;139.446;2022-11-04T14:41:19;8;8;
48893;PMS5003;34710;35.798;139.446;2022-11-04T14:44:00;7;7;
48893;PMS5003;34710;35.798;139.446;2022-11-04T14:46:40;8;7;
48893;PMS5003;34710;35.798;139.446;2022-11-04T14:49:29;6;6;
48893;PMS5003;34710;35.798;139.446;2022-11-04T14:50:57;6;6;
48893;PMS5003;34710;35.798;139.446;2022-11-04T14:53:32;8;7;
48893;PMS5003;34710;35.798;139.446;2022-11-04T14:56:13;4;4;
48893;PMS5003;34710;35.798;139.446;2022-11-04T14:58:54;7;7;
48893;PMS5003;34710;35.798;139.446;2022-11-04T15:01:31;7;6;
48893;PMS5003;34710;35.798;139.446;2022-11-04T15:04:04;9;9;
48893;PMS5003;34710;35.798;139.446;2022-11-04T15:06:38;8;6;
48893;PMS5003;34710;35.798;139.446;2022-11-04T15:09:21;6;6;
48893;PMS5003;34710;35.798;139.446;2022-11-04T15:11:52;8;8;
48893;PMS5003;34710;35.798;139.446;2022-11-04T15:14:32;11;9;
48893;PMS5003;34710;35.798;139.446;2022-11-04T15:17:09;7;7;
48893;PMS5003;34710;35.798;139.446;2022-11-04T15:17:49;7;7;
48893;PMS5003;34710;35.798;139.446;2022-11-04T15:20:24;8;7;
48893;PMS5003;34710;35.798;139.446;2022-11-04T15:23:01;7;7;
48893;PMS5003;34710;35.798;139.446;2022-11-04T15:25:44;8;7;
48893;PMS5003;34710;35.798;139.446;2022-11-04T15:28:20;7;7;
48893;PMS5003;34710;35.798;139.446;2022-11-04T15:30:56;6;6;
48893;PMS5003;34710;35.798;139.446;2022-11-04T15:33:36;10;6;
48893;PMS5003;34710;35.798;139.446;2022-11-04T15:36:14;8;7;
48893;PMS5003;34710;35.798;139.446;2022-11-04T15:38:48;10;8;
48893;PMS5003;34710;35.798;139.446;2022-11-04T15:41:27;9;7;
48893;PMS5003;34710;35.798;139.446;2022-11-04T15:43:58;8;8;
48893;PMS5003;34710;35.798;139.446;2022-11-04T15:46:28;7;7;
48893;PMS5003;34710;35.798;139.446;2022-11-04T15:49:02;9;8;
48893;PMS5003;34710;35.798;139.446;2022-11-04T15:51:34;10;8;